sensor_id;sensor_type;location;lat;lon;timestamp;temperature;humidity
4374;DHT22;2201;51.100;6.814;2022-09-30T00:00:35;7.80;98.20
4374;DHT22;2201;51.100;6.814;2022-09-30T00:03:02;7.70;98.20
4374;DHT22;2201;51.100;6.814;2022-09-30T00:05:29;7.70;98.20
4374;DHT22;2201;51.100;6.814;2022-09-30T00:07:56;7.70;98.20
4374;DHT22;2201;51.100;6.814;2022-09-30T00:10:23;7.70;98.20
4374;DHT22;2201;51.100;6.814;2022-09-30T00:12:51;7.70;98.20
4374;DHT22;2201;51.100;6.814;2022-09-30T00:15:18;7.70;98.20
4374;DHT22;2201;51.100;6.814;2022-09-30T00:17:47;7.70;98.20
4374;DHT22;2201;51.100;6.814;2022-09-30T00:20:14;7.70;98.20
4374;DHT22;2201;51.100;6.814;2022-09-30T00:22:41;7.70;98.20
4374;DHT22;2201;51.100;6.814;2022-09-30T00:25:09;7.60;98.20
4374;DHT22;2201;51.100;6.814;2022-09-30T00:27:36;7.60;98.20
4374;DHT22;2201;51.100;6.814;2022-09-30T00:30:04;7.60;98.20
4374;DHT22;2201;51.100;6.814;2022-09-30T00:32:31;7.60;98.20
4374;DHT22;2201;51.100;6.814;2022-09-30T00:34:59;7.60;98.20
4374;DHT22;2201;51.100;6.814;2022-09-30T00:37:26;7.60;98.20
4374;DHT22;2201;51.100;6.814;2022-09-30T00:39:53;7.50;98.20
4374;DHT22;2201;51.100;6.814;2022-09-30T00:42:20;7.50;98.20
4374;DHT22;2201;51.100;6.814;2022-09-30T00:44:52;7.50;98.20
4374;DHT22;2201;51.100;6.814;2022-09-30T00:47:39;7.50;98.20
4374;DHT22;2201;51.100;6.814;2022-09-30T00:50:18;7.50;98.20
4374;DHT22;2201;51.100;6.814;2022-09-30T00:52:50;7.50;98.20
4374;DHT22;2201;51.100;6.814;2022-09-30T00:55:35;7.50;98.20
4374;DHT22;2201;51.100;6.814;2022-09-30T00:58:06;7.50;98.20
4374;DHT22;2201;51.100;6.814;2022-09-30T01:00:34;7.50;98.20
4374;DHT22;2201;51.100;6.814;2022-09-30T01:03:02;7.40;98.20
4374;DHT22;2201;51.100;6.814;2022-09-30T01:05:32;7.40;98.20
4374;DHT22;2201;51.100;6.814;2022-09-30T01:08:03;7.40;98.20
4374;DHT22;2201;51.100;6.814;2022-09-30T01:10:31;7.40;98.20
4374;DHT22;2201;51.100;6.814;2022-09-30T01:12:58;7.40;98.20
4374;DHT22;2201;51.100;6.814;2022-09-30T01:15:38;7.30;98.20
4374;DHT22;2201;51.100;6.814;2022-09-30T01:18:15;7.30;98.20
4374;DHT22;2201;51.100;6.814;2022-09-30T01:20:59;7.30;98.20
4374;DHT22;2201;51.100;6.814;2022-09-30T01:23:50;7.30;98.20
4374;DHT22;2201;51.100;6.814;2022-09-30T01:26:52;7.30;98.20
4374;DHT22;2201;51.100;6.814;2022-09-30T01:32:40;7.20;98.20
4374;DHT22;2201;51.100;6.814;2022-09-30T01:35:15;7.20;98.20
4374;DHT22;2201;51.100;6.814;2022-09-30T01:37:53;7.20;98.20
4374;DHT22;2201;51.100;6.814;2022-09-30T01:40:27;7.20;98.20
4374;DHT22;2201;51.100;6.814;2022-09-30T01:43:04;7.20;98.20
4374;DHT22;2201;51.100;6.814;2022-09-30T01:45:39;7.20;98.20
4374;DHT22;2201;51.100;6.814;2022-09-30T01:48:15;7.10;98.20
4374;DHT22;2201;51.100;6.814;2022-09-30T01:50:47;7.10;98.20
4374;DHT22;2201;51.100;6.814;2022-09-30T01:53:24;7.10;98.20
4374;DHT22;2201;51.100;6.814;2022-09-30T01:55:58;7.10;98.20
4374;DHT22;2201;51.100;6.814;2022-09-30T01:58:34;7.10;98.20
4374;DHT22;2201;51.100;6.814;2022-09-30T02:01:07;7.00;98.20
4374;DHT22;2201;51.100;6.814;2022-09-30T02:03:38;7.00;98.20
4374;DHT22;2201;51.100;6.814;2022-09-30T02:06:11;7.00;98.20
4374;DHT22;2201;51.100;6.814;2022-09-30T02:08:43;7.00;98.20
4374;DHT22;2201;51.100;6.814;2022-09-30T02:11:13;6.90;98.20
4374;DHT22;2201;51.100;6.814;2022-09-30T02:13:45;6.90;98.20
4374;DHT22;2201;51.100;6.814;2022-09-30T02:16:19;6.90;98.20
4374;DHT22;2201;51.100;6.814;2022-09-30T02:18:51;6.90;98.20
4374;DHT22;2201;51.100;6.814;2022-09-30T02:21:22;6.90;98.20
4374;DHT22;2201;51.100;6.814;2022-09-30T02:23:54;6.90;98.20
4374;DHT22;2201;51.100;6.814;2022-09-30T02:26:28;6.90;98.20
4374;DHT22;2201;51.100;6.814;2022-09-30T02:28:59;6.90;98.20
4374;DHT22;2201;51.100;6.814;2022-09-30T02:31:31;6.90;98.20
4374;DHT22;2201;51.100;6.814;2022-09-30T02:34:04;6.90;98.20
4374;DHT22;2201;51.100;6.814;2022-09-30T02:36:35;6.90;98.20
4374;DHT22;2201;51.100;6.814;2022-09-30T02:39:05;6.80;98.20
4374;DHT22;2201;51.100;6.814;2022-09-30T02:41:38;6.90;98.20
4374;DHT22;2201;51.100;6.814;2022-09-30T02:44:06;6.90;98.20
4374;DHT22;2201;51.100;6.814;2022-09-30T02:46:41;6.90;98.20
4374;DHT22;2201;51.100;6.814;2022-09-30T02:49:15;6.90;98.20
4374;DHT22;2201;51.100;6.814;2022-09-30T02:51:53;6.80;98.20
4374;DHT22;2201;51.100;6.814;2022-09-30T02:54:29;6.90;98.20
4374;DHT22;2201;51.100;6.814;2022-09-30T02:56:58;6.80;98.20
4374;DHT22;2201;51.100;6.814;2022-09-30T02:59:29;6.80;98.20
4374;DHT22;2201;51.100;6.814;2022-09-30T03:01:56;6.80;98.20
4374;DHT22;2201;51.100;6.814;2022-09-30T03:04:28;6.80;98.20
4374;DHT22;2201;51.100;6.814;2022-09-30T03:06:56;6.80;98.20
4374;DHT22;2201;51.100;6.814;2022-09-30T03:09:24;6.80;98.20
4374;DHT22;2201;51.100;6.814;2022-09-30T03:11:58;6.80;98.20
4374;DHT22;2201;51.100;6.814;2022-09-30T03:14:40;6.80;98.20
4374;DHT22;2201;51.100;6.814;2022-09-30T03:17:31;6.80;98.20
4374;DHT22;2201;51.100;6.814;2022-09-30T03:20:25;6.80;98.20
4374;DHT22;2201;51.100;6.814;2022-09-30T03:23:13;6.90;98.20
4374;DHT22;2201;51.100;6.814;2022-09-30T03:25:52;6.90;98.20
4374;DHT22;2201;51.100;6.814;2022-09-30T03:28:26;6.90;98.20
4374;DHT22;2201;51.100;6.814;2022-09-30T03:31:00;6.90;98.20
4374;DHT22;2201;51.100;6.814;2022-09-30T03:33:37;6.90;98.20
4374;DHT22;2201;51.100;6.814;2022-09-30T03:36:10;6.90;98.20
4374;DHT22;2201;51.100;6.814;2022-09-30T03:38:46;6.90;98.20
4374;DHT22;2201;51.100;6.814;2022-09-30T03:41:18;6.90;98.20
4374;DHT22;2201;51.100;6.814;2022-09-30T03:43:48;6.80;98.20
4374;DHT22;2201;51.100;6.814;2022-09-30T03:46:21;6.80;98.20
4374;DHT22;2201;51.100;6.814;2022-09-30T03:48:54;6.80;98.20
4374;DHT22;2201;51.100;6.814;2022-09-30T03:51:24;6.80;98.20
4374;DHT22;2201;51.100;6.814;2022-09-30T03:53:51;6.80;98.20
4374;DHT22;2201;51.100;6.814;2022-09-30T03:56:24;6.80;98.20
4374;DHT22;2201;51.100;6.814;2022-09-30T03:58:51;6.80;98.20
4374;DHT22;2201;51.100;6.814;2022-09-30T04:01:19;6.70;98.20
4374;DHT22;2201;51.100;6.814;2022-09-30T04:03:46;6.70;98.20
4374;DHT22;2201;51.100;6.814;2022-09-30T04:06:16;6.70;98.20
4374;DHT22;2201;51.100;6.814;2022-09-30T04:08:45;6.70;98.20
4374;DHT22;2201;51.100;6.814;2022-09-30T04:11:12;6.70;98.20
4374;DHT22;2201;51.100;6.814;2022-09-30T04:13:39;6.60;98.20
4374;DHT22;2201;51.100;6.814;2022-09-30T04:16:06;6.60;98.20
4374;DHT22;2201;51.100;6.814;2022-09-30T04:18:34;6.60;98.20
4374;DHT22;2201;51.100;6.814;2022-09-30T04:21:04;6.60;98.20
4374;DHT22;2201;51.100;6.814;2022-09-30T04:23:34;6.60;98.20
4374;DHT22;2201;51.100;6.814;2022-09-30T04:26:03;6.60;98.20
4374;DHT22;2201;51.100;6.814;2022-09-30T04:28:30;6.60;98.20
4374;DHT22;2201;51.100;6.814;2022-09-30T04:30:58;6.60;98.20
4374;DHT22;2201;51.100;6.814;2022-09-30T04:33:25;6.70;98.20
4374;DHT22;2201;51.100;6.814;2022-09-30T04:35:53;6.70;98.20
4374;DHT22;2201;51.100;6.814;2022-09-30T04:38:21;6.70;98.20
4374;DHT22;2201;51.100;6.814;2022-09-30T04:40:49;6.70;98.20
4374;DHT22;2201;51.100;6.814;2022-09-30T04:43:19;6.70;98.20
4374;DHT22;2201;51.100;6.814;2022-09-30T04:45:48;6.70;98.20
4374;DHT22;2201;51.100;6.814;2022-09-30T04:48:17;6.70;98.20
4374;DHT22;2201;51.100;6.814;2022-09-30T04:50:45;6.70;98.20
4374;DHT22;2201;51.100;6.814;2022-09-30T04:53:14;6.80;98.20
4374;DHT22;2201;51.100;6.814;2022-09-30T04:55:41;6.80;98.20
4374;DHT22;2201;51.100;6.814;2022-09-30T04:58:08;6.80;98.20
4374;DHT22;2201;51.100;6.814;2022-09-30T05:00:37;6.80;98.20
4374;DHT22;2201;51.100;6.814;2022-09-30T05:03:05;6.80;98.20
4374;DHT22;2201;51.100;6.814;2022-09-30T05:05:32;6.80;98.20
4374;DHT22;2201;51.100;6.814;2022-09-30T05:08:00;6.80;98.20
4374;DHT22;2201;51.100;6.814;2022-09-30T05:10:28;6.80;98.20
4374;DHT22;2201;51.100;6.814;2022-09-30T05:12:55;6.80;98.20
4374;DHT22;2201;51.100;6.814;2022-09-30T05:15:23;6.80;98.20
4374;DHT22;2201;51.100;6.814;2022-09-30T05:17:52;6.80;98.20
4374;DHT22;2201;51.100;6.814;2022-09-30T05:20:19;6.80;98.20
4374;DHT22;2201;51.100;6.814;2022-09-30T05:22:46;6.80;98.20
4374;DHT22;2201;51.100;6.814;2022-09-30T05:25:13;6.80;98.20
4374;DHT22;2201;51.100;6.814;2022-09-30T05:27:40;6.80;98.20
4374;DHT22;2201;51.100;6.814;2022-09-30T05:30:08;6.80;98.20
4374;DHT22;2201;51.100;6.814;2022-09-30T05:32:35;6.80;98.20
4374;DHT22;2201;51.100;6.814;2022-09-30T05:35:05;6.90;98.20
4374;DHT22;2201;51.100;6.814;2022-09-30T05:37:33;6.90;98.20
4374;DHT22;2201;51.100;6.814;2022-09-30T05:40:00;6.90;98.20
4374;DHT22;2201;51.100;6.814;2022-09-30T05:42:27;6.90;98.20
4374;DHT22;2201;51.100;6.814;2022-09-30T05:44:57;6.90;98.20
4374;DHT22;2201;51.100;6.814;2022-09-30T05:47:24;6.90;98.20
4374;DHT22;2201;51.100;6.814;2022-09-30T05:49:51;7.00;98.20
4374;DHT22;2201;51.100;6.814;2022-09-30T05:52:19;7.00;98.20
4374;DHT22;2201;51.100;6.814;2022-09-30T05:54:46;6.90;98.20
4374;DHT22;2201;51.100;6.814;2022-09-30T05:57:13;6.90;98.20
4374;DHT22;2201;51.100;6.814;2022-09-30T05:59:40;6.90;98.20
4374;DHT22;2201;51.100;6.814;2022-09-30T06:02:08;6.90;98.20
4374;DHT22;2201;51.100;6.814;2022-09-30T06:04:35;6.90;98.20
4374;DHT22;2201;51.100;6.814;2022-09-30T06:07:03;6.90;98.20
4374;DHT22;2201;51.100;6.814;2022-09-30T06:09:31;6.90;98.20
4374;DHT22;2201;51.100;6.814;2022-09-30T06:11:58;6.90;98.20
4374;DHT22;2201;51.100;6.814;2022-09-30T06:14:26;7.00;98.20
4374;DHT22;2201;51.100;6.814;2022-09-30T06:16:53;7.00;98.20
4374;DHT22;2201;51.100;6.814;2022-09-30T06:19:21;7.10;98.20
4374;DHT22;2201;51.100;6.814;2022-09-30T06:21:48;7.10;98.20
4374;DHT22;2201;51.100;6.814;2022-09-30T06:24:16;7.20;98.20
4374;DHT22;2201;51.100;6.814;2022-09-30T06:26:45;7.30;98.20
4374;DHT22;2201;51.100;6.814;2022-09-30T06:29:12;7.40;98.20
4374;DHT22;2201;51.100;6.814;2022-09-30T06:31:39;7.60;98.20
4374;DHT22;2201;51.100;6.814;2022-09-30T06:34:06;7.70;98.20
4374;DHT22;2201;51.100;6.814;2022-09-30T06:36:35;7.80;98.20
4374;DHT22;2201;51.100;6.814;2022-09-30T06:39:03;7.90;98.20
4374;DHT22;2201;51.100;6.814;2022-09-30T06:41:30;8.00;98.20
4374;DHT22;2201;51.100;6.814;2022-09-30T06:43:59;8.10;98.20
4374;DHT22;2201;51.100;6.814;2022-09-30T06:46:26;8.20;98.20
4374;DHT22;2201;51.100;6.814;2022-09-30T06:48:54;8.40;98.20
4374;DHT22;2201;51.100;6.814;2022-09-30T06:51:22;8.50;98.20
4374;DHT22;2201;51.100;6.814;2022-09-30T06:53:50;8.60;98.20
4374;DHT22;2201;51.100;6.814;2022-09-30T06:56:17;8.80;98.20
4374;DHT22;2201;51.100;6.814;2022-09-30T06:58:45;9.00;98.20
4374;DHT22;2201;51.100;6.814;2022-09-30T07:01:14;9.10;98.20
4374;DHT22;2201;51.100;6.814;2022-09-30T07:03:43;9.20;98.20
4374;DHT22;2201;51.100;6.814;2022-09-30T07:06:12;9.40;98.20
4374;DHT22;2201;51.100;6.814;2022-09-30T07:08:40;9.50;98.20
4374;DHT22;2201;51.100;6.814;2022-09-30T07:11:10;9.60;98.20
4374;DHT22;2201;51.100;6.814;2022-09-30T07:13:39;9.80;98.20
4374;DHT22;2201;51.100;6.814;2022-09-30T07:16:07;9.90;98.20
4374;DHT22;2201;51.100;6.814;2022-09-30T07:18:38;10.00;98.20
4374;DHT22;2201;51.100;6.814;2022-09-30T07:21:07;10.10;98.20
4374;DHT22;2201;51.100;6.814;2022-09-30T07:23:35;10.20;98.20
4374;DHT22;2201;51.100;6.814;2022-09-30T07:26:03;10.20;98.20
4374;DHT22;2201;51.100;6.814;2022-09-30T07:28:34;10.20;98.20
4374;DHT22;2201;51.100;6.814;2022-09-30T07:31:08;10.20;98.20
4374;DHT22;2201;51.100;6.814;2022-09-30T07:33:38;10.30;98.20
4374;DHT22;2201;51.100;6.814;2022-09-30T07:36:06;10.40;98.20
4374;DHT22;2201;51.100;6.814;2022-09-30T07:38:35;10.30;98.20
4374;DHT22;2201;51.100;6.814;2022-09-30T07:41:05;10.40;98.20
4374;DHT22;2201;51.100;6.814;2022-09-30T07:43:34;10.60;98.20
4374;DHT22;2201;51.100;6.814;2022-09-30T07:46:04;10.70;98.20
4374;DHT22;2201;51.100;6.814;2022-09-30T07:48:32;10.80;98.20
4374;DHT22;2201;51.100;6.814;2022-09-30T07:51:13;11.00;98.20
4374;DHT22;2201;51.100;6.814;2022-09-30T07:53:41;11.20;98.20
4374;DHT22;2201;51.100;6.814;2022-09-30T07:56:09;11.40;98.20
4374;DHT22;2201;51.100;6.814;2022-09-30T07:58:37;11.50;98.20
4374;DHT22;2201;51.100;6.814;2022-09-30T08:01:05;11.70;98.20
4374;DHT22;2201;51.100;6.814;2022-09-30T08:03:33;11.90;98.20
4374;DHT22;2201;51.100;6.814;2022-09-30T08:06:04;12.00;98.20
4374;DHT22;2201;51.100;6.814;2022-09-30T08:08:33;12.10;98.20
4374;DHT22;2201;51.100;6.814;2022-09-30T08:11:00;12.30;98.20
4374;DHT22;2201;51.100;6.814;2022-09-30T08:13:28;12.40;98.20
4374;DHT22;2201;51.100;6.814;2022-09-30T08:15:55;12.60;98.20
4374;DHT22;2201;51.100;6.814;2022-09-30T08:18:22;12.80;98.20
4374;DHT22;2201;51.100;6.814;2022-09-30T08:20:50;12.90;98.20
4374;DHT22;2201;51.100;6.814;2022-09-30T08:23:17;12.90;98.20
4374;DHT22;2201;51.100;6.814;2022-09-30T08:25:46;13.10;98.20
4374;DHT22;2201;51.100;6.814;2022-09-30T08:28:13;13.20;98.20
4374;DHT22;2201;51.100;6.814;2022-09-30T08:30:43;13.30;98.20
4374;DHT22;2201;51.100;6.814;2022-09-30T08:33:10;13.40;98.20
4374;DHT22;2201;51.100;6.814;2022-09-30T08:35:37;13.60;98.20
4374;DHT22;2201;51.100;6.814;2022-09-30T08:38:05;13.60;98.20
4374;DHT22;2201;51.100;6.814;2022-09-30T08:40:36;13.70;98.20
4374;DHT22;2201;51.100;6.814;2022-09-30T08:43:21;13.70;98.20
4374;DHT22;2201;51.100;6.814;2022-09-30T08:46:00;13.80;98.20
4374;DHT22;2201;51.100;6.814;2022-09-30T08:48:46;13.90;98.20
4374;DHT22;2201;51.100;6.814;2022-09-30T08:51:28;14.00;98.20
4374;DHT22;2201;51.100;6.814;2022-09-30T08:53:58;14.20;98.20
4374;DHT22;2201;51.100;6.814;2022-09-30T08:56:30;14.30;98.20
4374;DHT22;2201;51.100;6.814;2022-09-30T08:59:04;14.40;98.20
4374;DHT22;2201;51.100;6.814;2022-09-30T09:01:33;14.50;98.20
4374;DHT22;2201;51.100;6.814;2022-09-30T09:04:03;14.70;98.20
4374;DHT22;2201;51.100;6.814;2022-09-30T09:06:38;14.80;98.20
4374;DHT22;2201;51.100;6.814;2022-09-30T09:09:27;15.00;98.20
4374;DHT22;2201;51.100;6.814;2022-09-30T09:12:08;15.10;98.20
4374;DHT22;2201;51.100;6.814;2022-09-30T09:14:48;15.30;98.20
4374;DHT22;2201;51.100;6.814;2022-09-30T09:17:26;15.40;98.20
4374;DHT22;2201;51.100;6.814;2022-09-30T09:20:00;15.60;98.20
4374;DHT22;2201;51.100;6.814;2022-09-30T09:22:31;15.70;98.20
4374;DHT22;2201;51.100;6.814;2022-09-30T09:24:59;15.80;98.20
4374;DHT22;2201;51.100;6.814;2022-09-30T09:27:33;16.00;98.20
4374;DHT22;2201;51.100;6.814;2022-09-30T09:30:07;16.10;98.20
4374;DHT22;2201;51.100;6.814;2022-09-30T09:32:36;16.20;96.90
4374;DHT22;2201;51.100;6.814;2022-09-30T09:35:11;16.30;97.10
4374;DHT22;2201;51.100;6.814;2022-09-30T09:37:46;16.30;98.00
4374;DHT22;2201;51.100;6.814;2022-09-30T09:40:45;16.30;96.50
4374;DHT22;2201;51.100;6.814;2022-09-30T09:43:27;16.30;98.20
4374;DHT22;2201;51.100;6.814;2022-09-30T09:46:11;16.50;95.40
4374;DHT22;2201;51.100;6.814;2022-09-30T09:48:40;16.80;95.40
4374;DHT22;2201;51.100;6.814;2022-09-30T09:51:15;17.00;92.30
4374;DHT22;2201;51.100;6.814;2022-09-30T09:53:47;17.20;91.60
4374;DHT22;2201;51.100;6.814;2022-09-30T09:56:17;17.30;92.30
4374;DHT22;2201;51.100;6.814;2022-09-30T09:59:11;17.40;91.20
4374;DHT22;2201;51.100;6.814;2022-09-30T10:01:41;17.60;91.60
4374;DHT22;2201;51.100;6.814;2022-09-30T10:04:13;17.70;88.60
4374;DHT22;2201;51.100;6.814;2022-09-30T10:06:46;17.60;92.00
4374;DHT22;2201;51.100;6.814;2022-09-30T10:09:29;17.80;92.40
4374;DHT22;2201;51.100;6.814;2022-09-30T10:12:20;17.90;91.60
4374;DHT22;2201;51.100;6.814;2022-09-30T10:15:04;18.00;91.60
4374;DHT22;2201;51.100;6.814;2022-09-30T10:17:39;18.30;91.20
4374;DHT22;2201;51.100;6.814;2022-09-30T10:20:18;18.40;90.40
4374;DHT22;2201;51.100;6.814;2022-09-30T10:22:47;18.50;88.60
4374;DHT22;2201;51.100;6.814;2022-09-30T10:25:18;18.40;89.90
4374;DHT22;2201;51.100;6.814;2022-09-30T10:27:49;18.60;90.40
4374;DHT22;2201;51.100;6.814;2022-09-30T10:30:36;18.70;90.50
4374;DHT22;2201;51.100;6.814;2022-09-30T10:33:23;19.00;89.20
4374;DHT22;2201;51.100;6.814;2022-09-30T10:35:55;19.20;89.70
4374;DHT22;2201;51.100;6.814;2022-09-30T10:38:25;19.30;88.50
4374;DHT22;2201;51.100;6.814;2022-09-30T10:40:55;19.40;88.80
4374;DHT22;2201;51.100;6.814;2022-09-30T10:43:25;19.50;86.90
4374;DHT22;2201;51.100;6.814;2022-09-30T10:45:54;19.70;88.10
4374;DHT22;2201;51.100;6.814;2022-09-30T10:48:27;19.80;87.40
4374;DHT22;2201;51.100;6.814;2022-09-30T10:50:56;19.90;86.70
4374;DHT22;2201;51.100;6.814;2022-09-30T10:53:25;20.10;87.10
4374;DHT22;2201;51.100;6.814;2022-09-30T10:55:55;20.20;86.40
4374;DHT22;2201;51.100;6.814;2022-09-30T10:58:29;20.00;86.20
4374;DHT22;2201;51.100;6.814;2022-09-30T11:01:08;20.10;86.10
4374;DHT22;2201;51.100;6.814;2022-09-30T11:03:47;20.20;84.80
4374;DHT22;2201;51.100;6.814;2022-09-30T11:06:15;20.40;85.30
4374;DHT22;2201;51.100;6.814;2022-09-30T11:08:48;20.50;85.30
4374;DHT22;2201;51.100;6.814;2022-09-30T11:11:19;20.60;85.40
4374;DHT22;2201;51.100;6.814;2022-09-30T11:13:51;20.80;84.10
4374;DHT22;2201;51.100;6.814;2022-09-30T11:16:27;20.90;85.10
4374;DHT22;2201;51.100;6.814;2022-09-30T11:19:03;20.80;84.90
4374;DHT22;2201;51.100;6.814;2022-09-30T11:21:38;20.80;82.50
4374;DHT22;2201;51.100;6.814;2022-09-30T11:24:18;20.70;82.40
4374;DHT22;2201;51.100;6.814;2022-09-30T11:26:55;20.40;83.20
4374;DHT22;2201;51.100;6.814;2022-09-30T11:29:39;20.00;85.30
4374;DHT22;2201;51.100;6.814;2022-09-30T11:32:29;19.90;87.00
4374;DHT22;2201;51.100;6.814;2022-09-30T11:35:10;19.90;87.30
4374;DHT22;2201;51.100;6.814;2022-09-30T11:37:54;19.70;87.20
4374;DHT22;2201;51.100;6.814;2022-09-30T11:40:30;19.40;88.00
4374;DHT22;2201;51.100;6.814;2022-09-30T11:43:07;19.30;87.50
4374;DHT22;2201;51.100;6.814;2022-09-30T11:45:51;19.40;87.40
4374;DHT22;2201;51.100;6.814;2022-09-30T11:48:37;19.50;86.40
4374;DHT22;2201;51.100;6.814;2022-09-30T11:51:16;19.60;86.20
4374;DHT22;2201;51.100;6.814;2022-09-30T11:53:55;19.60;83.60
4374;DHT22;2201;51.100;6.814;2022-09-30T11:56:44;19.50;85.00
4374;DHT22;2201;51.100;6.814;2022-09-30T11:59:17;19.20;84.90
4374;DHT22;2201;51.100;6.814;2022-09-30T12:01:48;19.00;86.10
4374;DHT22;2201;51.100;6.814;2022-09-30T12:04:18;18.80;85.80
4374;DHT22;2201;51.100;6.814;2022-09-30T12:06:53;18.60;86.60
4374;DHT22;2201;51.100;6.814;2022-09-30T12:09:25;18.40;87.10
4374;DHT22;2201;51.100;6.814;2022-09-30T12:11:56;18.30;88.60
4374;DHT22;2201;51.100;6.814;2022-09-30T12:14:32;18.10;87.80
4374;DHT22;2201;51.100;6.814;2022-09-30T12:17:03;18.00;88.00
4374;DHT22;2201;51.100;6.814;2022-09-30T12:19:35;18.10;87.60
4374;DHT22;2201;51.100;6.814;2022-09-30T12:22:10;18.30;89.00
4374;DHT22;2201;51.100;6.814;2022-09-30T12:24:41;18.70;88.00
4374;DHT22;2201;51.100;6.814;2022-09-30T12:27:14;19.00;86.40
4374;DHT22;2201;51.100;6.814;2022-09-30T12:29:51;19.20;83.30
4374;DHT22;2201;51.100;6.814;2022-09-30T12:33:07;19.40;83.10
4374;DHT22;2201;51.100;6.814;2022-09-30T12:35:58;19.60;84.10
4374;DHT22;2201;51.100;6.814;2022-09-30T12:38:43;19.90;82.00
4374;DHT22;2201;51.100;6.814;2022-09-30T12:41:29;20.20;84.80
4374;DHT22;2201;51.100;6.814;2022-09-30T12:47:31;20.50;83.70
4374;DHT22;2201;51.100;6.814;2022-09-30T12:50:03;20.70;82.20
4374;DHT22;2201;51.100;6.814;2022-09-30T12:52:33;20.90;79.70
4374;DHT22;2201;51.100;6.814;2022-09-30T12:55:17;21.10;80.00
4374;DHT22;2201;51.100;6.814;2022-09-30T12:57:47;21.30;80.30
4374;DHT22;2201;51.100;6.814;2022-09-30T13:00:17;21.10;76.80
4374;DHT22;2201;51.100;6.814;2022-09-30T13:02:48;21.10;77.20
4374;DHT22;2201;51.100;6.814;2022-09-30T13:08:47;21.00;77.50
4374;DHT22;2201;51.100;6.814;2022-09-30T13:11:40;20.90;78.30
4374;DHT22;2201;51.100;6.814;2022-09-30T13:20:00;21.00;78.30
4374;DHT22;2201;51.100;6.814;2022-09-30T13:22:57;20.90;77.20
4374;DHT22;2201;51.100;6.814;2022-09-30T13:25:26;20.90;76.10
4374;DHT22;2201;51.100;6.814;2022-09-30T13:30:47;20.90;75.70
4374;DHT22;2201;51.100;6.814;2022-09-30T13:33:46;20.40;76.70
4374;DHT22;2201;51.100;6.814;2022-09-30T13:36:31;20.50;79.90
4374;DHT22;2201;51.100;6.814;2022-09-30T13:39:20;20.60;77.70
4374;DHT22;2201;51.100;6.814;2022-09-30T13:42:00;20.80;78.60
4374;DHT22;2201;51.100;6.814;2022-09-30T13:44:36;20.80;78.00
4374;DHT22;2201;51.100;6.814;2022-09-30T13:47:17;20.90;77.20
4374;DHT22;2201;51.100;6.814;2022-09-30T13:49:51;20.80;77.00
4374;DHT22;2201;51.100;6.814;2022-09-30T13:52:24;20.80;77.30
4374;DHT22;2201;51.100;6.814;2022-09-30T13:54:55;20.90;78.00
4374;DHT22;2201;51.100;6.814;2022-09-30T13:57:27;21.00;77.20
4374;DHT22;2201;51.100;6.814;2022-09-30T14:00:05;21.10;77.30
4374;DHT22;2201;51.100;6.814;2022-09-30T14:03:01;21.10;75.60
4374;DHT22;2201;51.100;6.814;2022-09-30T14:05:48;21.20;75.90
4374;DHT22;2201;51.100;6.814;2022-09-30T14:11:21;20.80;74.70
4374;DHT22;2201;51.100;6.814;2022-09-30T14:14:00;20.50;75.10
4374;DHT22;2201;51.100;6.814;2022-09-30T14:16:47;20.20;76.90
4374;DHT22;2201;51.100;6.814;2022-09-30T14:19:38;20.00;77.50
4374;DHT22;2201;51.100;6.814;2022-09-30T14:22:10;19.70;78.20
4374;DHT22;2201;51.100;6.814;2022-09-30T14:24:39;19.70;79.80
4374;DHT22;2201;51.100;6.814;2022-09-30T14:27:39;19.70;79.20
4374;DHT22;2201;51.100;6.814;2022-09-30T14:30:12;19.90;79.20
4374;DHT22;2201;51.100;6.814;2022-09-30T14:32:44;20.00;79.90
4374;DHT22;2201;51.100;6.814;2022-09-30T14:35:16;20.00;78.60
4374;DHT22;2201;51.100;6.814;2022-09-30T14:37:48;20.10;79.00
4374;DHT22;2201;51.100;6.814;2022-09-30T14:40:19;20.10;78.00
4374;DHT22;2201;51.100;6.814;2022-09-30T14:42:50;20.20;78.80
4374;DHT22;2201;51.100;6.814;2022-09-30T14:45:22;20.20;78.20
4374;DHT22;2201;51.100;6.814;2022-09-30T14:47:54;20.10;76.60
4374;DHT22;2201;51.100;6.814;2022-09-30T14:50:29;20.10;76.30
4374;DHT22;2201;51.100;6.814;2022-09-30T14:53:02;20.00;77.40
4374;DHT22;2201;51.100;6.814;2022-09-30T14:55:31;19.80;76.60
4374;DHT22;2201;51.100;6.814;2022-09-30T15:14:52;18.70;81.40
4374;DHT22;2201;51.100;6.814;2022-09-30T15:17:22;18.60;81.70
4374;DHT22;2201;51.100;6.814;2022-09-30T15:19:52;18.50;82.60
4374;DHT22;2201;51.100;6.814;2022-09-30T15:22:25;18.40;82.50
4374;DHT22;2201;51.100;6.814;2022-09-30T15:24:53;18.40;83.80
4374;DHT22;2201;51.100;6.814;2022-09-30T15:27:22;18.30;83.70
4374;DHT22;2201;51.100;6.814;2022-09-30T15:29:56;18.30;82.50
4374;DHT22;2201;51.100;6.814;2022-09-30T15:32:26;18.20;83.20
4374;DHT22;2201;51.100;6.814;2022-09-30T15:34:54;18.20;84.70
4374;DHT22;2201;51.100;6.814;2022-09-30T15:37:24;18.20;84.10
4374;DHT22;2201;51.100;6.814;2022-09-30T15:39:54;18.10;83.90
4374;DHT22;2201;51.100;6.814;2022-09-30T15:42:41;18.10;84.50
4374;DHT22;2201;51.100;6.814;2022-09-30T15:45:27;18.10;85.40
4374;DHT22;2201;51.100;6.814;2022-09-30T15:47:58;18.00;85.80
4374;DHT22;2201;51.100;6.814;2022-09-30T15:50:38;18.00;85.40
4374;DHT22;2201;51.100;6.814;2022-09-30T15:53:14;17.90;84.90
4374;DHT22;2201;51.100;6.814;2022-09-30T15:55:43;17.80;85.70
4374;DHT22;2201;51.100;6.814;2022-09-30T15:58:30;17.70;86.00
4374;DHT22;2201;51.100;6.814;2022-09-30T16:01:15;17.70;87.30
4374;DHT22;2201;51.100;6.814;2022-09-30T16:03:50;17.70;87.10
4374;DHT22;2201;51.100;6.814;2022-09-30T16:06:23;17.60;86.50
4374;DHT22;2201;51.100;6.814;2022-09-30T16:08:54;17.50;86.30
4374;DHT22;2201;51.100;6.814;2022-09-30T16:11:29;17.40;86.30
4374;DHT22;2201;51.100;6.814;2022-09-30T16:13:58;17.40;86.10
4374;DHT22;2201;51.100;6.814;2022-09-30T16:16:31;17.30;87.30
4374;DHT22;2201;51.100;6.814;2022-09-30T16:19:00;17.20;87.70
4374;DHT22;2201;51.100;6.814;2022-09-30T16:21:41;17.20;88.90
4374;DHT22;2201;51.100;6.814;2022-09-30T16:24:40;17.10;88.70
4374;DHT22;2201;51.100;6.814;2022-09-30T16:27:26;17.00;89.30
4374;DHT22;2201;51.100;6.814;2022-09-30T16:29:58;17.00;88.90
4374;DHT22;2201;51.100;6.814;2022-09-30T16:32:30;16.90;89.70
4374;DHT22;2201;51.100;6.814;2022-09-30T16:34:58;16.90;90.70
4374;DHT22;2201;51.100;6.814;2022-09-30T16:37:26;16.90;91.50
4374;DHT22;2201;51.100;6.814;2022-09-30T16:39:55;16.80;91.00
4374;DHT22;2201;51.100;6.814;2022-09-30T16:42:24;16.80;90.50
4374;DHT22;2201;51.100;6.814;2022-09-30T16:44:52;16.70;90.30
4374;DHT22;2201;51.100;6.814;2022-09-30T16:47:21;16.70;90.50
4374;DHT22;2201;51.100;6.814;2022-09-30T16:49:50;16.60;90.70
4374;DHT22;2201;51.100;6.814;2022-09-30T16:52:17;16.60;90.10
4374;DHT22;2201;51.100;6.814;2022-09-30T16:54:44;16.50;90.50
4374;DHT22;2201;51.100;6.814;2022-09-30T16:57:13;16.40;90.10
4374;DHT22;2201;51.100;6.814;2022-09-30T16:59:41;16.30;90.90
4374;DHT22;2201;51.100;6.814;2022-09-30T17:02:17;16.30;90.60
4374;DHT22;2201;51.100;6.814;2022-09-30T17:04:44;16.20;90.70
4374;DHT22;2201;51.100;6.814;2022-09-30T17:07:14;16.10;91.20
4374;DHT22;2201;51.100;6.814;2022-09-30T17:09:42;16.00;91.30
4374;DHT22;2201;51.100;6.814;2022-09-30T17:12:10;16.00;92.30
4374;DHT22;2201;51.100;6.814;2022-09-30T17:14:38;15.90;92.30
4374;DHT22;2201;51.100;6.814;2022-09-30T17:17:05;15.80;92.30
4374;DHT22;2201;51.100;6.814;2022-09-30T17:19:32;15.70;92.80
4374;DHT22;2201;51.100;6.814;2022-09-30T17:22:01;15.60;94.20
4374;DHT22;2201;51.100;6.814;2022-09-30T17:24:30;15.50;94.10